sensor_id;sensor_type;location;lat;lon;timestamp;P1;durP1;ratioP1;P2;durP2;ratioP2
47796;SDS011;33558;50.922;14.068;2023-04-24T00:01:06;6.33;;;4.37;;
47796;SDS011;33558;50.922;14.068;2023-04-24T00:03:34;8.33;;;4.53;;
47796;SDS011;33558;50.922;14.068;2023-04-24T00:06:01;9.07;;;4.83;;
47796;SDS011;33558;50.922;14.068;2023-04-24T00:08:27;9.97;;;4.87;;
47796;SDS011;33558;50.922;14.068;2023-04-24T00:10:54;8.03;;;4.83;;
47796;SDS011;33558;50.922;14.068;2023-04-24T00:13:21;5.97;;;4.33;;
47796;SDS011;33558;50.922;14.068;2023-04-24T00:15:48;6.47;;;4.27;;
47796;SDS011;33558;50.922;14.068;2023-04-24T00:18:16;7.07;;;4.40;;
47796;SDS011;33558;50.922;14.068;2023-04-24T00:20:42;8.60;;;4.50;;
47796;SDS011;33558;50.922;14.068;2023-04-24T00:23:09;7.27;;;4.83;;
47796;SDS011;33558;50.922;14.068;2023-04-24T00:25:36;8.73;;;5.03;;
47796;SDS011;33558;50.922;14.068;2023-04-24T00:28:03;5.77;;;4.50;;
47796;SDS011;33558;50.922;14.068;2023-04-24T00:30:29;6.60;;;4.10;;
47796;SDS011;33558;50.922;14.068;2023-04-24T00:32:56;6.53;;;4.43;;
47796;SDS011;33558;50.922;14.068;2023-04-24T00:35:24;7.30;;;5.27;;
47796;SDS011;33558;50.922;14.068;2023-04-24T00:37:51;8.47;;;4.90;;
47796;SDS011;33558;50.922;14.068;2023-04-24T00:40:18;8.07;;;4.37;;
47796;SDS011;33558;50.922;14.068;2023-04-24T00:42:44;7.87;;;4.70;;
47796;SDS011;33558;50.922;14.068;2023-04-24T00:45:12;6.77;;;4.57;;
47796;SDS011;33558;50.922;14.068;2023-04-24T00:47:39;8.27;;;4.87;;
47796;SDS011;33558;50.922;14.068;2023-04-24T00:50:06;8.57;;;4.53;;
47796;SDS011;33558;50.922;14.068;2023-04-24T00:52:35;9.37;;;5.87;;
47796;SDS011;33558;50.922;14.068;2023-04-24T00:55:02;7.13;;;5.40;;
47796;SDS011;33558;50.922;14.068;2023-04-24T00:57:29;8.73;;;5.17;;
47796;SDS011;33558;50.922;14.068;2023-04-24T00:59:56;8.00;;;4.93;;
47796;SDS011;33558;50.922;14.068;2023-04-24T01:02:23;6.50;;;4.63;;
47796;SDS011;33558;50.922;14.068;2023-04-24T01:04:50;6.73;;;4.83;;
47796;SDS011;33558;50.922;14.068;2023-04-24T01:07:18;8.53;;;5.07;;
47796;SDS011;33558;50.922;14.068;2023-04-24T01:09:47;8.10;;;5.17;;
47796;SDS011;33558;50.922;14.068;2023-04-24T01:12:17;6.30;;;4.97;;
47796;SDS011;33558;50.922;14.068;2023-04-24T01:14:44;8.47;;;5.47;;
47796;SDS011;33558;50.922;14.068;2023-04-24T01:17:10;7.70;;;5.00;;
47796;SDS011;33558;50.922;14.068;2023-04-24T01:19:37;7.97;;;5.87;;
47796;SDS011;33558;50.922;14.068;2023-04-24T01:22:09;6.17;;;4.83;;
47796;SDS011;33558;50.922;14.068;2023-04-24T01:24:37;6.70;;;4.80;;
47796;SDS011;33558;50.922;14.068;2023-04-24T01:27:04;6.83;;;4.90;;
47796;SDS011;33558;50.922;14.068;2023-04-24T01:29:31;8.27;;;5.37;;
47796;SDS011;33558;50.922;14.068;2023-04-24T01:31:58;6.23;;;5.10;;
47796;SDS011;33558;50.922;14.068;2023-04-24T01:34:24;7.37;;;4.60;;
47796;SDS011;33558;50.922;14.068;2023-04-24T01:36:51;6.53;;;4.97;;
47796;SDS011;33558;50.922;14.068;2023-04-24T01:39:20;6.43;;;4.93;;
47796;SDS011;33558;50.922;14.068;2023-04-24T01:41:48;6.53;;;4.60;;
47796;SDS011;33558;50.922;14.068;2023-04-24T01:44:18;6.47;;;4.80;;
47796;SDS011;33558;50.922;14.068;2023-04-24T01:46:45;6.40;;;4.10;;
47796;SDS011;33558;50.922;14.068;2023-04-24T01:49:11;5.80;;;4.30;;
47796;SDS011;33558;50.922;14.068;2023-04-24T01:51:38;6.70;;;4.80;;
47796;SDS011;33558;50.922;14.068;2023-04-24T01:54:05;6.60;;;4.47;;
47796;SDS011;33558;50.922;14.068;2023-04-24T01:56:34;6.23;;;4.23;;
47796;SDS011;33558;50.922;14.068;2023-04-24T01:59:01;6.47;;;4.47;;
47796;SDS011;33558;50.922;14.068;2023-04-24T02:01:32;5.43;;;4.10;;
47796;SDS011;33558;50.922;14.068;2023-04-24T02:04:00;5.43;;;4.50;;
47796;SDS011;33558;50.922;14.068;2023-04-24T02:06:27;6.23;;;4.50;;
47796;SDS011;33558;50.922;14.068;2023-04-24T02:08:54;5.80;;;4.47;;
47796;SDS011;33558;50.922;14.068;2023-04-24T02:11:21;7.13;;;4.70;;
47796;SDS011;33558;50.922;14.068;2023-04-24T02:13:49;6.60;;;4.73;;
47796;SDS011;33558;50.922;14.068;2023-04-24T02:16:16;6.17;;;4.43;;
47796;SDS011;33558;50.922;14.068;2023-04-24T02:18:43;6.43;;;4.67;;
47796;SDS011;33558;50.922;14.068;2023-04-24T02:21:10;5.97;;;4.57;;
47796;SDS011;33558;50.922;14.068;2023-04-24T02:23:36;5.83;;;4.87;;
47796;SDS011;33558;50.922;14.068;2023-04-24T02:26:04;5.97;;;4.27;;
47796;SDS011;33558;50.922;14.068;2023-04-24T02:28:31;8.07;;;4.80;;
47796;SDS011;33558;50.922;14.068;2023-04-24T02:30:59;6.20;;;4.20;;
47796;SDS011;33558;50.922;14.068;2023-04-24T02:33:25;6.57;;;4.40;;
47796;SDS011;33558;50.922;14.068;2023-04-24T02:35:52;5.93;;;5.10;;
47796;SDS011;33558;50.922;14.068;2023-04-24T02:38:18;7.07;;;4.80;;
47796;SDS011;33558;50.922;14.068;2023-04-24T02:40:45;8.50;;;4.70;;
47796;SDS011;33558;50.922;14.068;2023-04-24T02:43:12;9.50;;;5.37;;
47796;SDS011;33558;50.922;14.068;2023-04-24T02:45:38;6.50;;;5.00;;
47796;SDS011;33558;50.922;14.068;2023-04-24T02:48:06;8.97;;;4.93;;
47796;SDS011;33558;50.922;14.068;2023-04-24T02:50:33;6.10;;;4.60;;
47796;SDS011;33558;50.922;14.068;2023-04-24T02:53:00;6.37;;;4.87;;
47796;SDS011;33558;50.922;14.068;2023-04-24T02:55:27;7.00;;;3.97;;
47796;SDS011;33558;50.922;14.068;2023-04-24T02:57:53;6.40;;;4.90;;
47796;SDS011;33558;50.922;14.068;2023-04-24T03:00:20;8.53;;;5.07;;
47796;SDS011;33558;50.922;14.068;2023-04-24T03:02:47;13.93;;;5.50;;
47796;SDS011;33558;50.922;14.068;2023-04-24T03:05:16;6.67;;;5.07;;
47796;SDS011;33558;50.922;14.068;2023-04-24T03:07:42;9.03;;;5.00;;
47796;SDS011;33558;50.922;14.068;2023-04-24T03:10:10;5.37;;;4.77;;
47796;SDS011;33558;50.922;14.068;2023-04-24T03:12:37;8.03;;;5.60;;
47796;SDS011;33558;50.922;14.068;2023-04-24T03:15:04;7.17;;;5.40;;
47796;SDS011;33558;50.922;14.068;2023-04-24T03:17:31;7.47;;;6.10;;
47796;SDS011;33558;50.922;14.068;2023-04-24T03:19:58;8.13;;;5.83;;
47796;SDS011;33558;50.922;14.068;2023-04-24T03:22:26;10.73;;;6.77;;
47796;SDS011;33558;50.922;14.068;2023-04-24T03:24:53;7.00;;;6.20;;
47796;SDS011;33558;50.922;14.068;2023-04-24T03:27:20;8.00;;;5.80;;
47796;SDS011;33558;50.922;14.068;2023-04-24T03:32:29;8.77;;;6.17;;
47796;SDS011;33558;50.922;14.068;2023-04-24T03:34:57;9.07;;;6.70;;
47796;SDS011;33558;50.922;14.068;2023-04-24T03:37:26;8.17;;;5.70;;
47796;SDS011;33558;50.922;14.068;2023-04-24T03:40:09;10.43;;;6.17;;
47796;SDS011;33558;50.922;14.068;2023-04-24T03:42:36;6.77;;;5.70;;
47796;SDS011;33558;50.922;14.068;2023-04-24T03:45:03;8.93;;;5.73;;
47796;SDS011;33558;50.922;14.068;2023-04-24T03:47:34;7.40;;;6.03;;
47796;SDS011;33558;50.922;14.068;2023-04-24T03:50:03;9.70;;;7.70;;
47796;SDS011;33558;50.922;14.068;2023-04-24T03:52:33;9.80;;;7.00;;
47796;SDS011;33558;50.922;14.068;2023-04-24T03:55:00;8.13;;;7.10;;
47796;SDS011;33558;50.922;14.068;2023-04-24T03:57:29;9.80;;;6.80;;
47796;SDS011;33558;50.922;14.068;2023-04-24T04:00:06;10.43;;;5.87;;
47796;SDS011;33558;50.922;14.068;2023-04-24T04:02:39;7.87;;;5.77;;
47796;SDS011;33558;50.922;14.068;2023-04-24T04:05:08;9.20;;;6.67;;
47796;SDS011;33558;50.922;14.068;2023-04-24T04:07:36;9.77;;;6.87;;
47796;SDS011;33558;50.922;14.068;2023-04-24T04:10:03;9.10;;;6.10;;
47796;SDS011;33558;50.922;14.068;2023-04-24T04:12:32;8.60;;;7.00;;
47796;SDS011;33558;50.922;14.068;2023-04-24T04:14:59;8.53;;;6.40;;
47796;SDS011;33558;50.922;14.068;2023-04-24T04:17:26;8.27;;;6.27;;
47796;SDS011;33558;50.922;14.068;2023-04-24T04:19:53;9.13;;;6.47;;
47796;SDS011;33558;50.922;14.068;2023-04-24T04:22:20;7.87;;;5.93;;
47796;SDS011;33558;50.922;14.068;2023-04-24T04:24:50;9.23;;;6.30;;
47796;SDS011;33558;50.922;14.068;2023-04-24T04:27:20;8.27;;;6.00;;
47796;SDS011;33558;50.922;14.068;2023-04-24T04:29:54;8.77;;;6.60;;
47796;SDS011;33558;50.922;14.068;2023-04-24T04:32:22;8.60;;;6.00;;
47796;SDS011;33558;50.922;14.068;2023-04-24T04:34:49;8.20;;;5.90;;
47796;SDS011;33558;50.922;14.068;2023-04-24T04:37:18;9.47;;;5.67;;
47796;SDS011;33558;50.922;14.068;2023-04-24T04:40:03;7.47;;;6.17;;
47796;SDS011;33558;50.922;14.068;2023-04-24T04:42:37;7.43;;;5.90;;
47796;SDS011;33558;50.922;14.068;2023-04-24T04:45:06;9.40;;;6.60;;
47796;SDS011;33558;50.922;14.068;2023-04-24T04:47:46;7.33;;;5.63;;
47796;SDS011;33558;50.922;14.068;2023-04-24T04:50:13;7.90;;;6.20;;
47796;SDS011;33558;50.922;14.068;2023-04-24T04:52:42;7.53;;;5.93;;
47796;SDS011;33558;50.922;14.068;2023-04-24T04:55:24;6.57;;;5.83;;
47796;SDS011;33558;50.922;14.068;2023-04-24T04:58:07;7.80;;;6.13;;
47796;SDS011;33558;50.922;14.068;2023-04-24T05:00:33;8.60;;;5.93;;
47796;SDS011;33558;50.922;14.068;2023-04-24T05:03:09;8.45;;;6.18;;
47796;SDS011;33558;50.922;14.068;2023-04-24T05:05:36;10.97;;;6.30;;
47796;SDS011;33558;50.922;14.068;2023-04-24T05:08:08;6.40;;;5.17;;
47796;SDS011;33558;50.922;14.068;2023-04-24T05:10:37;6.87;;;5.53;;
47796;SDS011;33558;50.922;14.068;2023-04-24T05:13:04;7.87;;;5.93;;
47796;SDS011;33558;50.922;14.068;2023-04-24T05:15:32;9.27;;;5.73;;
47796;SDS011;33558;50.922;14.068;2023-04-24T05:18:00;7.57;;;6.03;;
47796;SDS011;33558;50.922;14.068;2023-04-24T05:20:27;8.33;;;6.17;;
47796;SDS011;33558;50.922;14.068;2023-04-24T05:22:54;7.13;;;5.70;;
47796;SDS011;33558;50.922;14.068;2023-04-24T05:25:23;9.67;;;5.47;;
47796;SDS011;33558;50.922;14.068;2023-04-24T05:27:58;8.17;;;6.13;;
47796;SDS011;33558;50.922;14.068;2023-04-24T05:30:24;8.50;;;5.57;;
47796;SDS011;33558;50.922;14.068;2023-04-24T05:32:51;7.97;;;5.77;;
47796;SDS011;33558;50.922;14.068;2023-04-24T05:35:18;8.40;;;5.87;;
47796;SDS011;33558;50.922;14.068;2023-04-24T05:37:45;7.87;;;5.70;;
47796;SDS011;33558;50.922;14.068;2023-04-24T05:40:12;9.70;;;5.70;;
47796;SDS011;33558;50.922;14.068;2023-04-24T05:42:39;8.23;;;6.07;;
47796;SDS011;33558;50.922;14.068;2023-04-24T05:45:07;8.77;;;6.50;;
47796;SDS011;33558;50.922;14.068;2023-04-24T05:47:41;9.80;;;6.15;;
47796;SDS011;33558;50.922;14.068;2023-04-24T05:50:08;8.07;;;6.27;;
47796;SDS011;33558;50.922;14.068;2023-04-24T05:52:34;7.97;;;6.27;;
47796;SDS011;33558;50.922;14.068;2023-04-24T05:55:05;8.37;;;6.80;;
47796;SDS011;33558;50.922;14.068;2023-04-24T05:57:34;8.43;;;6.50;;
47796;SDS011;33558;50.922;14.068;2023-04-24T06:00:03;9.50;;;6.27;;
47796;SDS011;33558;50.922;14.068;2023-04-24T06:02:40;7.77;;;5.70;;
47796;SDS011;33558;50.922;14.068;2023-04-24T06:05:10;8.13;;;6.53;;
47796;SDS011;33558;50.922;14.068;2023-04-24T06:07:37;9.27;;;6.90;;
47796;SDS011;33558;50.922;14.068;2023-04-24T06:10:09;10.90;;;7.63;;
47796;SDS011;33558;50.922;14.068;2023-04-24T06:12:41;11.53;;;7.77;;
47796;SDS011;33558;50.922;14.068;2023-04-24T06:15:14;10.83;;;7.77;;
47796;SDS011;33558;50.922;14.068;2023-04-24T06:20:19;11.93;;;8.00;;
47796;SDS011;33558;50.922;14.068;2023-04-24T06:22:46;10.20;;;8.13;;
47796;SDS011;33558;50.922;14.068;2023-04-24T06:25:12;16.25;;;8.90;;
47796;SDS011;33558;50.922;14.068;2023-04-24T06:27:39;10.83;;;7.80;;
47796;SDS011;33558;50.922;14.068;2023-04-24T06:30:07;11.40;;;7.97;;
47796;SDS011;33558;50.922;14.068;2023-04-24T06:32:35;12.77;;;8.50;;
47796;SDS011;33558;50.922;14.068;2023-04-24T06:35:03;13.48;;;8.50;;
47796;SDS011;33558;50.922;14.068;2023-04-24T06:37:32;10.43;;;8.33;;
47796;SDS011;33558;50.922;14.068;2023-04-24T06:39:59;13.10;;;9.63;;
47796;SDS011;33558;50.922;14.068;2023-04-24T06:42:25;11.88;;;8.77;;
47796;SDS011;33558;50.922;14.068;2023-04-24T06:44:52;11.13;;;8.55;;
47796;SDS011;33558;50.922;14.068;2023-04-24T06:47:19;11.32;;;10.07;;
47796;SDS011;33558;50.922;14.068;2023-04-24T06:49:46;12.00;;;9.25;;
47796;SDS011;33558;50.922;14.068;2023-04-24T06:52:14;11.90;;;9.63;;
47796;SDS011;33558;50.922;14.068;2023-04-24T06:54:41;14.88;;;9.55;;
47796;SDS011;33558;50.922;14.068;2023-04-24T06:57:08;13.25;;;10.23;;
47796;SDS011;33558;50.922;14.068;2023-04-24T06:59:35;15.13;;;10.75;;
47796;SDS011;33558;50.922;14.068;2023-04-24T07:02:02;16.50;;;11.05;;
47796;SDS011;33558;50.922;14.068;2023-04-24T07:04:29;14.98;;;11.38;;
47796;SDS011;33558;50.922;14.068;2023-04-24T07:06:56;18.45;;;11.98;;
47796;SDS011;33558;50.922;14.068;2023-04-24T07:09:24;17.05;;;12.45;;
47796;SDS011;33558;50.922;14.068;2023-04-24T07:11:51;17.55;;;13.23;;
47796;SDS011;33558;50.922;14.068;2023-04-24T07:14:18;15.15;;;11.98;;
47796;SDS011;33558;50.922;14.068;2023-04-24T07:16:46;21.98;;;14.02;;
47796;SDS011;33558;50.922;14.068;2023-04-24T07:19:13;17.05;;;13.57;;
47796;SDS011;33558;50.922;14.068;2023-04-24T07:21:40;17.88;;;13.52;;
47796;SDS011;33558;50.922;14.068;2023-04-24T07:24:06;18.45;;;13.48;;
47796;SDS011;33558;50.922;14.068;2023-04-24T07:26:37;17.45;;;13.77;;
47796;SDS011;33558;50.922;14.068;2023-04-24T07:29:05;16.80;;;13.57;;
47796;SDS011;33558;50.922;14.068;2023-04-24T07:31:31;16.45;;;13.20;;
47796;SDS011;33558;50.922;14.068;2023-04-24T07:33:58;16.95;;;13.68;;
47796;SDS011;33558;50.922;14.068;2023-04-24T07:36:25;16.88;;;13.23;;
47796;SDS011;33558;50.922;14.068;2023-04-24T07:38:52;17.30;;;13.27;;
47796;SDS011;33558;50.922;14.068;2023-04-24T07:41:18;18.08;;;13.20;;
47796;SDS011;33558;50.922;14.068;2023-04-24T07:43:47;18.90;;;14.20;;
47796;SDS011;33558;50.922;14.068;2023-04-24T07:46:13;18.42;;;13.60;;
47796;SDS011;33558;50.922;14.068;2023-04-24T07:48:40;17.40;;;12.65;;
47796;SDS011;33558;50.922;14.068;2023-04-24T07:51:06;17.38;;;13.88;;
47796;SDS011;33558;50.922;14.068;2023-04-24T07:53:35;17.02;;;12.13;;
47796;SDS011;33558;50.922;14.068;2023-04-24T07:56:01;17.60;;;12.95;;
47796;SDS011;33558;50.922;14.068;2023-04-24T07:58:28;16.35;;;12.98;;
47796;SDS011;33558;50.922;14.068;2023-04-24T08:00:56;17.05;;;13.13;;
47796;SDS011;33558;50.922;14.068;2023-04-24T08:03:23;20.45;;;14.65;;
47796;SDS011;33558;50.922;14.068;2023-04-24T08:05:49;20.55;;;15.15;;
47796;SDS011;33558;50.922;14.068;2023-04-24T08:08:17;15.43;;;12.23;;
47796;SDS011;33558;50.922;14.068;2023-04-24T08:10:44;17.80;;;13.60;;
47796;SDS011;33558;50.922;14.068;2023-04-24T08:13:10;16.27;;;13.13;;
47796;SDS011;33558;50.922;14.068;2023-04-24T08:15:37;17.58;;;13.32;;
47796;SDS011;33558;50.922;14.068;2023-04-24T08:18:05;19.10;;;13.45;;
47796;SDS011;33558;50.922;14.068;2023-04-24T08:20:32;15.20;;;12.13;;
47796;SDS011;33558;50.922;14.068;2023-04-24T08:22:59;15.77;;;11.65;;
47796;SDS011;33558;50.922;14.068;2023-04-24T08:25:25;13.80;;;10.65;;
47796;SDS011;33558;50.922;14.068;2023-04-24T08:27:52;13.05;;;10.20;;
47796;SDS011;33558;50.922;14.068;2023-04-24T08:30:19;15.43;;;11.18;;
47796;SDS011;33558;50.922;14.068;2023-04-24T08:32:47;11.95;;;9.38;;
47796;SDS011;33558;50.922;14.068;2023-04-24T08:35:15;9.57;;;7.57;;
47796;SDS011;33558;50.922;14.068;2023-04-24T08:37:42;9.85;;;8.85;;
47796;SDS011;33558;50.922;14.068;2023-04-24T08:40:11;12.18;;;8.38;;
47796;SDS011;33558;50.922;14.068;2023-04-24T08:42:39;10.80;;;8.95;;
47796;SDS011;33558;50.922;14.068;2023-04-24T08:45:08;9.48;;;8.45;;
47796;SDS011;33558;50.922;14.068;2023-04-24T08:47:36;10.40;;;8.18;;
47796;SDS011;33558;50.922;14.068;2023-04-24T08:50:04;10.60;;;7.65;;
47796;SDS011;33558;50.922;14.068;2023-04-24T08:52:33;10.43;;;7.70;;
47796;SDS011;33558;50.922;14.068;2023-04-24T08:55:00;8.13;;;6.85;;
47796;SDS011;33558;50.922;14.068;2023-04-24T08:57:27;7.55;;;6.50;;
47796;SDS011;33558;50.922;14.068;2023-04-24T08:59:54;4.90;;;4.40;;
47796;SDS011;33558;50.922;14.068;2023-04-24T09:02:23;5.10;;;3.83;;
47796;SDS011;33558;50.922;14.068;2023-04-24T09:04:50;5.72;;;4.10;;
47796;SDS011;33558;50.922;14.068;2023-04-24T09:07:18;4.82;;;3.90;;
47796;SDS011;33558;50.922;14.068;2023-04-24T09:09:47;4.43;;;3.05;;
47796;SDS011;33558;50.922;14.068;2023-04-24T09:12:15;4.90;;;2.80;;
47796;SDS011;33558;50.922;14.068;2023-04-24T09:14:42;4.03;;;2.83;;
47796;SDS011;33558;50.922;14.068;2023-04-24T09:17:10;3.35;;;2.47;;
47796;SDS011;33558;50.922;14.068;2023-04-24T09:19:36;3.85;;;2.45;;
47796;SDS011;33558;50.922;14.068;2023-04-24T09:22:04;4.07;;;2.28;;
47796;SDS011;33558;50.922;14.068;2023-04-24T09:24:31;5.55;;;2.20;;
47796;SDS011;33558;50.922;14.068;2023-04-24T09:27:05;3.40;;;2.30;;
47796;SDS011;33558;50.922;14.068;2023-04-24T09:29:32;4.10;;;2.38;;
47796;SDS011;33558;50.922;14.068;2023-04-24T09:31:59;5.18;;;2.72;;
47796;SDS011;33558;50.922;14.068;2023-04-24T09:34:27;3.95;;;2.78;;
47796;SDS011;33558;50.922;14.068;2023-04-24T09:36:53;4.60;;;3.03;;
47796;SDS011;33558;50.922;14.068;2023-04-24T09:39:21;3.42;;;2.75;;
47796;SDS011;33558;50.922;14.068;2023-04-24T09:41:48;4.60;;;3.20;;
47796;SDS011;33558;50.922;14.068;2023-04-24T09:44:17;7.25;;;3.55;;
47796;SDS011;33558;50.922;14.068;2023-04-24T09:46:48;4.13;;;3.40;;
47796;SDS011;33558;50.922;14.068;2023-04-24T09:49:16;9.23;;;3.90;;
47796;SDS011;33558;50.922;14.068;2023-04-24T09:51:48;4.90;;;4.40;;
47796;SDS011;33558;50.922;14.068;2023-04-24T09:54:17;8.70;;;3.75;;
47796;SDS011;33558;50.922;14.068;2023-04-24T09:56:46;4.20;;;3.63;;
47796;SDS011;33558;50.922;14.068;2023-04-24T09:59:17;4.63;;;3.88;;
47796;SDS011;33558;50.922;14.068;2023-04-24T10:01:45;5.28;;;3.88;;
47796;SDS011;33558;50.922;14.068;2023-04-24T10:04:15;4.65;;;3.60;;
47796;SDS011;33558;50.922;14.068;2023-04-24T10:06:45;5.57;;;4.20;;
47796;SDS011;33558;50.922;14.068;2023-04-24T10:09:14;4.60;;;4.03;;
47796;SDS011;33558;50.922;14.068;2023-04-24T10:11:44;6.13;;;3.63;;
47796;SDS011;33558;50.922;14.068;2023-04-24T10:14:14;5.07;;;4.22;;
47796;SDS011;33558;50.922;14.068;2023-04-24T10:16:46;5.20;;;4.28;;
47796;SDS011;33558;50.922;14.068;2023-04-24T10:19:15;5.30;;;4.78;;
47796;SDS011;33558;50.922;14.068;2023-04-24T10:21:44;5.35;;;4.82;;
47796;SDS011;33558;50.922;14.068;2023-04-24T10:24:13;5.80;;;4.72;;
47796;SDS011;33558;50.922;14.068;2023-04-24T10:26:42;5.07;;;4.38;;
47796;SDS011;33558;50.922;14.068;2023-04-24T10:29:11;5.90;;;5.30;;
47796;SDS011;33558;50.922;14.068;2023-04-24T10:31:40;4.40;;;3.97;;
47796;SDS011;33558;50.922;14.068;2023-04-24T10:34:13;4.72;;;4.10;;
47796;SDS011;33558;50.922;14.068;2023-04-24T10:36:43;6.90;;;5.50;;
47796;SDS011;33558;50.922;14.068;2023-04-24T10:39:14;11.30;;;8.70;;
47796;SDS011;33558;50.922;14.068;2023-04-24T10:41:42;17.25;;;11.15;;
47796;SDS011;33558;50.922;14.068;2023-04-24T10:44:10;6.85;;;6.07;;
47796;SDS011;33558;50.922;14.068;2023-04-24T10:46:42;6.00;;;3.65;;
47796;SDS011;33558;50.922;14.068;2023-04-24T10:49:12;4.03;;;3.00;;
47796;SDS011;33558;50.922;14.068;2023-04-24T10:51:47;4.28;;;3.10;;
47796;SDS011;33558;50.922;14.068;2023-04-24T10:54:23;2.63;;;2.42;;
47796;SDS011;33558;50.922;14.068;2023-04-24T10:56:53;3.22;;;2.92;;
47796;SDS011;33558;50.922;14.068;2023-04-24T10:59:24;9.73;;;8.82;;
47796;SDS011;33558;50.922;14.068;2023-04-24T11:01:53;5.60;;;3.10;;
47796;SDS011;33558;50.922;14.068;2023-04-24T11:04:32;2.95;;;2.50;;
47796;SDS011;33558;50.922;14.068;2023-04-24T11:07:00;3.25;;;2.35;;
47796;SDS011;33558;50.922;14.068;2023-04-24T11:09:30;4.00;;;2.30;;
47796;SDS011;33558;50.922;14.068;2023-04-24T11:12:04;2.45;;;2.25;;
47796;SDS011;33558;50.922;14.068;2023-04-24T11:17:30;2.40;;;2.20;;
47796;SDS011;33558;50.922;14.068;2023-04-24T11:20:03;2.58;;;2.25;;
47796;SDS011;33558;50.922;14.068;2023-04-24T11:22:32;4.35;;;2.15;;
47796;SDS011;33558;50.922;14.068;2023-04-24T11:25:01;2.95;;;2.45;;
47796;SDS011;33558;50.922;14.068;2023-04-24T11:27:30;3.15;;;2.85;;
47796;SDS011;33558;50.922;14.068;2023-04-24T11:29:59;3.45;;;3.15;;
47796;SDS011;33558;50.922;14.068;2023-04-24T11:32:27;5.22;;;3.70;;
47796;SDS011;33558;50.922;14.068;2023-04-24T11:34:56;6.40;;;3.88;;
47796;SDS011;33558;50.922;14.068;2023-04-24T11:37:26;4.20;;;3.80;;
47796;SDS011;33558;50.922;14.068;2023-04-24T11:39:53;4.53;;;4.10;;
47796;SDS011;33558;50.922;14.068;2023-04-24T11:42:21;6.18;;;4.43;;
47796;SDS011;33558;50.922;14.068;2023-04-24T11:44:49;4.30;;;3.83;;
47796;SDS011;33558;50.922;14.068;2023-04-24T11:47:15;4.45;;;4.05;;
47796;SDS011;33558;50.922;14.068;2023-04-24T11:49:42;4.18;;;3.70;;
47796;SDS011;33558;50.922;14.068;2023-04-24T11:52:09;4.13;;;3.40;;
47796;SDS011;33558;50.922;14.068;2023-04-24T11:54:37;3.90;;;3.60;;
47796;SDS011;33558;50.922;14.068;2023-04-24T11:57:04;4.47;;;3.33;;
47796;SDS011;33558;50.922;14.068;2023-04-24T11:59:35;3.78;;;3.45;;
47796;SDS011;33558;50.922;14.068;2023-04-24T12:02:03;3.80;;;3.00;;
47796;SDS011;33558;50.922;14.068;2023-04-24T12:15:17;3.78;;;3.20;;
47796;SDS011;33558;50.922;14.068;2023-04-24T12:17:44;4.30;;;3.17;;
47796;SDS011;33558;50.922;14.068;2023-04-24T12:20:12;5.75;;;3.22;;
47796;SDS011;33558;50.922;14.068;2023-04-24T12:22:43;2.72;;;2.00;;
47796;SDS011;33558;50.922;14.068;2023-04-24T12:25:12;2.88;;;1.20;;
47796;SDS011;33558;50.922;14.068;2023-04-24T12:27:39;4.05;;;0.90;;
47796;SDS011;33558;50.922;14.068;2023-04-24T12:30:10;1.58;;;0.80;;
47796;SDS011;33558;50.922;14.068;2023-04-24T12:32:41;2.28;;;0.98;;
47796;SDS011;33558;50.922;14.068;2023-04-24T12:35:08;2.30;;;1.15;;
47796;SDS011;33558;50.922;14.068;2023-04-24T12:37:35;1.70;;;0.73;;
47796;SDS011;33558;50.922;14.068;2023-04-24T12:40:03;2.17;;;0.80;;
47796;SDS011;33558;50.922;14.068;2023-04-24T12:42:32;2.10;;;0.77;;
47796;SDS011;33558;50.922;14.068;2023-04-24T12:44:59;3.10;;;0.90;;
47796;SDS011;33558;50.922;14.068;2023-04-24T12:47:28;2.53;;;0.63;;
47796;SDS011;33558;50.922;14.068;2023-04-24T12:49:55;0.60;;;0.50;;
47796;SDS011;33558;50.922;14.068;2023-04-24T12:52:22;1.92;;;0.80;;
47796;SDS011;33558;50.922;14.068;2023-04-24T12:54:51;1.48;;;0.40;;
47796;SDS011;33558;50.922;14.068;2023-04-24T12:57:19;2.50;;;0.52;;
47796;SDS011;33558;50.922;14.068;2023-04-24T12:59:46;2.65;;;0.50;;
47796;SDS011;33558;50.922;14.068;2023-04-24T13:02:13;2.15;;;0.70;;
47796;SDS011;33558;50.922;14.068;2023-04-24T13:04:44;1.60;;;0.70;;
47796;SDS011;33558;50.922;14.068;2023-04-24T13:07:12;2.22;;;0.70;;
47796;SDS011;33558;50.922;14.068;2023-04-24T13:09:39;1.10;;;0.40;;
47796;SDS011;33558;50.922;14.068;2023-04-24T13:12:06;1.20;;;0.52;;
47796;SDS011;33558;50.922;14.068;2023-04-24T13:14:33;3.53;;;0.90;;
47796;SDS011;33558;50.922;14.068;2023-04-24T13:17:00;0.60;;;0.50;;
47796;SDS011;33558;50.922;14.068;2023-04-24T13:19:27;2.80;;;0.80;;
47796;SDS011;33558;50.922;14.068;2023-04-24T13:21:55;1.70;;;0.65;;
47796;SDS011;33558;50.922;14.068;2023-04-24T13:24:23;1.42;;;0.70;;
47796;SDS011;33558;50.922;14.068;2023-04-24T13:26:51;1.45;;;0.60;;
47796;SDS011;33558;50.922;14.068;2023-04-24T13:29:18;1.13;;;0.60;;
47796;SDS011;33558;50.922;14.068;2023-04-24T13:31:45;3.20;;;1.00;;
47796;SDS011;33558;50.922;14.068;2023-04-24T13:34:12;2.00;;;0.65;;
47796;SDS011;33558;50.922;14.068;2023-04-24T13:36:39;1.85;;;1.00;;
47796;SDS011;33558;50.922;14.068;2023-04-24T13:39:07;2.53;;;1.52;;
47796;SDS011;33558;50.922;14.068;2023-04-24T13:41:34;2.15;;;0.70;;
47796;SDS011;33558;50.922;14.068;2023-04-24T13:44:01;1.17;;;0.70;;
47796;SDS011;33558;50.922;14.068;2023-04-24T13:46:28;0.90;;;0.60;;
47796;SDS011;33558;50.922;14.068;2023-04-24T13:48:54;3.15;;;0.70;;
47796;SDS011;33558;50.922;14.068;2023-04-24T13:51:22;1.13;;;0.60;;
47796;SDS011;33558;50.922;14.068;2023-04-24T13:53:48;1.58;;;0.80;;
47796;SDS011;33558;50.922;14.068;2023-04-24T13:56:16;1.75;;;0.70;;
47796;SDS011;33558;50.922;14.068;2023-04-24T13:58:43;1.15;;;0.70;;
47796;SDS011;33558;50.922;14.068;2023-04-24T14:01:10;1.10;;;0.60;;
47796;SDS011;33558;50.922;14.068;2023-04-24T14:03:36;1.10;;;0.73;;
47796;SDS011;33558;50.922;14.068;2023-04-24T14:06:04;1.50;;;0.88;;
47796;SDS011;33558;50.922;14.068;2023-04-24T14:08:31;1.77;;;0.93;;
47796;SDS011;33558;50.922;14.068;2023-04-24T14:10:58;2.30;;;0.80;;
47796;SDS011;33558;50.922;14.068;2023-04-24T14:13:26;1.13;;;0.73;;
47796;SDS011;33558;50.922;14.068;2023-04-24T14:15:53;1.60;;;0.73;;
47796;SDS011;33558;50.922;14.068;2023-04-24T14:18:20;1.33;;;0.90;;
47796;SDS011;33558;50.922;14.068;2023-04-24T14:20:47;2.00;;;0.60;;
47796;SDS011;33558;50.922;14.068;2023-04-24T14:23:14;1.50;;;0.75;;
47796;SDS011;33558;50.922;14.068;2023-04-24T14:25:41;1.25;;;0.70;;
47796;SDS011;33558;50.922;14.068;2023-04-24T14:28:09;2.55;;;1.02;;
47796;SDS011;33558;50.922;14.068;2023-04-24T14:30:37;2.40;;;0.80;;
47796;SDS011;33558;50.922;14.068;2023-04-24T14:33:05;1.83;;;0.90;;
47796;SDS011;33558;50.922;14.068;2023-04-24T14:35:32;3.13;;;0.90;;
47796;SDS011;33558;50.922;14.068;2023-04-24T14:38:00;1.35;;;0.70;;
47796;SDS011;33558;50.922;14.068;2023-04-24T14:40:27;1.15;;;0.50;;
47796;SDS011;33558;50.922;14.068;2023-04-24T14:42:54;1.60;;;0.63;;
47796;SDS011;33558;50.922;14.068;2023-04-24T14:45:22;1.20;;;0.82;;
47796;SDS011;33558;50.922;14.068;2023-04-24T14:47:50;2.30;;;0.80;;
47796;SDS011;33558;50.922;14.068;2023-04-24T14:50:17;1.27;;;0.55;;
47796;SDS011;33558;50.922;14.068;2023-04-24T14:52:43;1.27;;;0.80;;
47796;SDS011;33558;50.922;14.068;2023-04-24T14:55:10;2.85;;;1.20;;